Time,TemperatureF,DewpointF,PressureIn,WindDirection,WindDirectionDegrees,WindSpeedMPH,WindSpeedGustMPH,Humidity,HourlyPrecipIn,Conditions,Clouds,dailyrainin,SoftwareType,DateUTC
2013-04-03 00:00:00,46.0,40.8,30.09,SSW,202,8.3,9.4,82,0.00,,,0.00,WUHU21623XXSP,2013-04-03 07:00:00,
2013-04-03 00:05:00,45.7,40.8,30.08,South,180,6.9,9.8,83,0.00,,,0.00,WUHU21623XXSP,2013-04-03 07:05:00,
2013-04-03 00:10:00,45.5,40.6,30.08,South,180,6.9,9.8,83,0.00,,,0.00,WUHU21623XXSP,2013-04-03 07:10:00,
2013-04-03 00:15:00,45.1,40.2,30.08,South,180,6.9,6.9,83,0.00,,,0.00,WUHU21623XXSP,2013-04-03 07:15:00,
2013-04-03 00:20:00,44.8,40.2,30.09,South,180,9.8,11.2,84,0.00,,,0.00,WUHU21623XXSP,2013-04-03 07:20:00,
2013-04-03 00:25:00,44.6,40.0,30.08,South,180,7.8,11.2,84,0.00,,,0.00,WUHU21623XXSP,2013-04-03 07:25:00,
2013-04-03 00:30:00,44.4,39.8,30.09,South,180,9.2,9.8,84,0.00,,,0.00,WUHU21623XXSP,2013-04-03 07:30:00,
2013-04-03 00:35:00,43.9,39.6,30.09,South,180,7.6,9.2,85,0.00,,,0.00,WUHU21623XXSP,2013-04-03 07:35:00,
2013-04-03 00:40:00,43.7,39.4,30.09,South,180,9.2,9.2,85,0.00,,,0.00,WUHU21623XXSP,2013-04-03 07:40:00,
2013-04-03 00:45:00,43.7,39.4,30.08,South,180,7.4,9.2,85,0.00,,,0.00,WUHU21623XXSP,2013-04-03 07:45:00,
2013-04-03 00:50:00,43.5,39.2,30.09,SSW,202,6.7,10.1,85,0.00,,,0.00,WUHU21623XXSP,2013-04-03 07:50:00,
2013-04-03 00:55:00,43.5,39.2,30.09,South,180,6.0,10.1,85,0.00,,,0.00,WUHU21623XXSP,2013-04-03 07:55:00,
2013-04-03 01:00:00,43.5,39.2,30.09,South,180,4.5,6.7,85,0.00,,,0.00,WUHU21623XXSP,2013-04-03 08:00:00,
2013-04-03 01:05:00,43.5,39.2,30.09,South,180,4.5,4.5,85,0.00,,,0.00,WUHU21623XXSP,2013-04-03 08:05:00,
2013-04-03 01:10:00,43.2,39.2,30.09,SSW,202,10.3,10.3,86,0.00,,,0.00,WUHU21623XXSP,2013-04-03 08:10:00,
2013-04-03 01:15:00,43.2,39.5,30.09,SSW,202,7.8,12.3,87,0.00,,,0.00,WUHU21623XXSP,2013-04-03 08:15:00,
2013-04-03 01:20:00,43.3,39.6,30.09,SSW,202,8.5,12.3,87,0.00,,,0.00,WUHU21623XXSP,2013-04-03 08:20:00,
2013-04-03 01:25:00,43.3,39.6,30.09,SSW,202,6.5,8.5,87,0.00,,,0.00,WUHU21623XXSP,2013-04-03 08:25:00,
2013-04-03 01:30:00,43.3,39.6,30.10,SSW,202,7.4,8.3,87,0.00,,,0.00,WUHU21623XXSP,2013-04-03 08:30:00,
2013-04-03 01:35:00,43.2,39.5,30.10,South,180,7.8,7.8,87,0.00,,,0.00,WUHU21623XXSP,2013-04-03 08:35:00,
2013-04-03 01:40:00,43.0,39.3,30.10,South,180,8.7,9.8,87,0.00,,,0.00,WUHU21623XXSP,2013-04-03 08:40:00,
2013-04-03 01:45:00,43.0,39.6,30.10,South,180,8.7,9.8,88,0.00,,,0.00,WUHU21623XXSP,2013-04-03 08:45:00,
2013-04-03 01:50:00,43.0,39.9,30.10,South,180,9.8,9.8,89,0.00,,,0.00,WUHU21623XXSP,2013-04-03 08:50:00,
2013-04-03 01:55:00,42.6,39.5,30.10,South,180,11.0,11.0,89,0.00,,,0.00,WUHU21623XXSP,2013-04-03 08:55:00,
2013-04-03 02:00:00,42.6,39.5,30.10,South,180,8.3,11.0,89,0.00,,,0.00,WUHU21623XXSP,2013-04-03 09:00:00,
2013-04-03 02:05:00,42.6,39.5,30.10,South,180,9.6,9.6,89,0.00,,,0.00,WUHU21623XXSP,2013-04-03 09:05:00,
2013-04-03 02:10:00,42.6,39.5,30.09,South,180,14.3,14.3,89,0.00,,,0.00,WUHU21623XXSP,2013-04-03 09:10:00,
2013-04-03 02:15:00,43.0,39.9,30.09,South,180,16.8,16.8,89,0.00,,,0.00,WUHU21623XXSP,2013-04-03 09:15:00,
2013-04-03 02:20:00,42.6,39.5,30.10,South,180,11.6,16.8,89,0.00,,,0.00,WUHU21623XXSP,2013-04-03 09:20:00,
2013-04-03 02:25:00,42.6,39.5,30.10,South,180,12.8,15.0,89,0.00,,,0.00,WUHU21623XXSP,2013-04-03 09:25:00,
2013-04-03 02:30:00,42.4,39.6,30.10,South,180,13.4,15.0,90,0.00,,,0.00,WUHU21623XXSP,2013-04-03 09:30:00,
2013-04-03 02:35:00,42.4,39.6,30.10,South,180,15.9,15.9,90,0.00,,,0.00,WUHU21623XXSP,2013-04-03 09:35:00,
2013-04-03 02:40:00,42.3,39.8,30.09,South,180,15.9,15.9,91,0.00,,,0.00,WUHU21623XXSP,2013-04-03 09:40:00,
2013-04-03 02:45:00,42.3,39.8,30.10,South,180,19.0,19.0,91,0.00,,,0.00,WUHU21623XXSP,2013-04-03 09:45:00,
2013-04-03 02:50:00,42.3,40.0,30.10,South,180,12.3,19.0,92,0.00,,,0.00,WUHU21623XXSP,2013-04-03 09:50:00,
2013-04-03 02:55:00,42.4,40.1,30.10,South,180,15.0,15.0,92,0.00,,,0.00,WUHU21623XXSP,2013-04-03 09:55:00,
2013-04-03 03:00:00,42.3,40.0,30.10,South,180,14.8,15.0,92,0.00,,,0.00,WUHU21623XXSP,2013-04-03 10:00:00,
2013-04-03 03:05:00,42.1,39.8,30.10,South,180,13.2,14.8,92,0.00,,,0.00,WUHU21623XXSP,2013-04-03 10:05:00,
2013-04-03 03:10:00,42.1,39.8,30.10,South,180,11.4,13.6,92,0.00,,,0.00,WUHU21623XXSP,2013-04-03 10:10:00,
2013-04-03 03:15:00,42.1,39.8,30.10,South,180,9.6,13.2,92,0.00,,,0.00,WUHU21623XXSP,2013-04-03 10:15:00,
2013-04-03 03:20:00,41.9,39.6,30.10,South,180,13.0,14.1,92,0.00,,,0.00,WUHU21623XXSP,2013-04-03 10:20:00,
2013-04-03 03:25:00,41.9,39.6,30.11,South,180,13.0,14.1,92,0.00,,,0.00,WUHU21623XXSP,2013-04-03 10:25:00,
2013-04-03 03:30:00,41.9,39.6,30.10,South,180,8.9,13.0,92,0.00,,,0.00,WUHU21623XXSP,2013-04-03 10:30:00,
2013-04-03 03:35:00,41.5,39.2,30.11,SSE,157,8.9,10.1,92,0.00,,,0.00,WUHU21623XXSP,2013-04-03 10:35:00,
2013-04-03 03:40:00,41.5,39.0,30.11,South,180,0.0,8.9,91,0.00,,,0.00,WUHU21623XXSP,2013-04-03 10:40:00,
2013-04-03 03:45:00,41.2,38.7,30.11,South,180,0.0,0.0,91,0.00,,,0.00,WUHU21623XXSP,2013-04-03 10:45:00,
2013-04-03 03:50:00,40.8,38.3,30.12,South,180,0.0,0.0,91,0.00,,,0.00,WUHU21623XXSP,2013-04-03 10:50:00,
2013-04-03 03:55:00,40.5,38.0,30.12,South,180,0.0,0.0,91,0.00,,,0.00,WUHU21623XXSP,2013-04-03 10:55:00,
2013-04-03 04:00:00,40.1,37.6,30.12,South,180,0.0,0.0,91,0.00,,,0.00,WUHU21623XXSP,2013-04-03 11:00:00,
2013-04-03 04:05:00,39.7,37.2,30.12,South,180,0.0,0.0,91,0.00,,,0.00,WUHU21623XXSP,2013-04-03 11:05:00,
2013-04-03 04:10:00,39.6,37.1,30.12,South,180,0.0,0.0,91,0.00,,,0.00,WUHU21623XXSP,2013-04-03 11:10:00,
2013-04-03 04:15:00,39.4,36.9,30.12,South,180,0.0,0.0,91,0.00,,,0.00,WUHU21623XXSP,2013-04-03 11:15:00,
2013-04-03 04:20:00,39.0,36.5,30.12,South,180,0.0,0.0,91,0.00,,,0.00,WUHU21623XXSP,2013-04-03 11:20:00,
2013-04-03 04:25:00,39.0,36.8,30.12,South,180,0.0,0.0,92,0.00,,,0.00,WUHU21623XXSP,2013-04-03 11:25:00,
2013-04-03 04:30:00,39.0,37.0,30.12,South,180,0.0,0.0,93,0.00,,,0.00,WUHU21623XXSP,2013-04-03 11:30:00,
2013-04-03 04:36:00,38.8,36.8,30.12,South,180,4.0,4.0,93,0.00,,,0.00,WUHU21623XXSP,2013-04-03 11:36:00,
2013-04-03 04:40:00,38.8,36.8,30.12,South,180,5.6,5.6,93,0.00,,,0.00,WUHU21623XXSP,2013-04-03 11:40:00,
2013-04-03 04:45:00,39.0,37.0,30.13,SSE,157,6.5,6.5,93,0.00,,,0.00,WUHU21623XXSP,2013-04-03 11:45:00,
2013-04-03 04:50:00,39.4,37.7,30.13,SSE,157,2.0,6.5,94,0.00,,,0.00,WUHU21623XXSP,2013-04-03 11:50:00,
2013-04-03 04:55:00,39.0,37.3,30.13,SSE,157,3.6,6.5,94,0.00,,,0.00,WUHU21623XXSP,2013-04-03 11:55:00,
2013-04-03 05:00:00,38.8,37.1,30.13,SSE,157,8.9,8.9,94,0.00,,,0.00,WUHU21623XXSP,2013-04-03 12:00:00,
2013-04-03 05:05:00,38.8,37.1,30.12,SSE,157,8.3,8.9,94,0.00,,,0.00,WUHU21623XXSP,2013-04-03 12:05:00,
2013-04-03 05:10:00,38.8,37.4,30.13,SSE,157,7.8,8.9,95,0.00,,,0.00,WUHU21623XXSP,2013-04-03 12:10:00,
2013-04-03 05:15:00,38.8,37.4,30.12,South,180,7.6,7.8,95,0.00,,,0.00,WUHU21623XXSP,2013-04-03 12:15:00,
2013-04-03 05:20:00,38.5,37.1,30.12,South,180,6.9,7.6,95,0.00,,,0.00,WUHU21623XXSP,2013-04-03 12:20:00,
2013-04-03 05:25:00,38.5,37.1,30.13,SSE,157,6.0,7.6,95,0.00,,,0.00,WUHU21623XXSP,2013-04-03 12:25:00,
2013-04-03 05:30:00,38.7,37.6,30.13,South,180,4.7,8.5,96,0.00,,,0.00,WUHU21623XXSP,2013-04-03 12:30:00,
2013-04-03 05:35:00,38.5,37.1,30.13,South,180,0.2,8.5,95,0.00,,,0.00,WUHU21623XXSP,2013-04-03 12:35:00,
2013-04-03 05:40:00,38.8,37.7,30.13,SSE,157,8.5,8.5,96,0.00,,,0.00,WUHU21623XXSP,2013-04-03 12:40:00,
2013-04-03 05:45:00,38.8,37.7,30.13,SSE,157,0.0,8.5,96,0.00,,,0.00,WUHU21623XXSP,2013-04-03 12:45:00,
2013-04-03 05:50:00,38.8,37.7,30.13,SSE,157,0.0,7.8,96,0.00,,,0.00,WUHU21623XXSP,2013-04-03 12:50:00,
2013-04-03 05:55:00,38.8,37.7,30.14,SSE,157,6.3,6.3,96,0.00,,,0.00,WUHU21623XXSP,2013-04-03 12:55:00,
2013-04-03 06:00:00,38.8,37.7,30.14,SSE,157,0.0,6.3,96,0.00,,,0.00,WUHU21623XXSP,2013-04-03 13:00:00,
2013-04-03 06:05:00,38.8,37.7,30.14,SSE,157,0.0,6.3,96,0.00,,,0.00,WUHU21623XXSP,2013-04-03 13:05:00,
2013-04-03 06:10:00,38.5,37.4,30.14,SSE,157,4.3,4.3,96,0.00,,,0.00,WUHU21623XXSP,2013-04-03 13:10:00,
2013-04-03 06:15:00,38.1,36.7,30.13,SSE,157,3.6,4.3,95,0.00,,,0.00,WUHU21623XXSP,2013-04-03 13:15:00,
2013-04-03 06:20:00,38.1,36.7,30.13,South,180,7.4,7.4,95,0.00,,,0.00,WUHU21623XXSP,2013-04-03 13:20:00,
2013-04-03 06:25:00,38.3,37.2,30.13,SSE,157,6.5,9.6,96,0.00,,,0.00,WUHU21623XXSP,2013-04-03 13:25:00,
2013-04-03 06:30:00,38.5,37.4,30.14,SSE,157,0.0,9.6,96,0.00,,,0.00,WUHU21623XXSP,2013-04-03 13:30:00,
2013-04-03 06:35:00,38.5,37.4,30.14,SSE,157,0.0,6.5,96,0.00,,,0.00,WUHU21623XXSP,2013-04-03 13:35:00,
2013-04-03 06:40:00,38.5,37.4,30.14,SSE,157,0.0,0.0,96,0.00,,,0.00,WUHU21623XXSP,2013-04-03 13:40:00,
2013-04-03 06:45:00,38.5,37.4,30.14,SSE,157,0.0,0.0,96,0.00,,,0.00,WUHU21623XXSP,2013-04-03 13:45:00,
2013-04-03 06:50:00,39.0,38.1,30.14,SSE,157,0.0,0.0,97,0.00,,,0.00,WUHU21623XXSP,2013-04-03 13:50:00,
2013-04-03 06:55:00,40.5,39.6,30.14,SSE,157,0.0,0.0,97,0.00,,,0.00,WUHU21623XXSP,2013-04-03 13:55:00,
2013-04-03 07:00:00,42.6,41.7,30.14,SSE,157,0.0,0.0,97,0.00,,,0.00,WUHU21623XXSP,2013-04-03 14:00:00,
2013-04-03 07:05:00,44.4,43.2,30.14,SSE,157,0.0,0.0,96,0.00,,,0.00,WUHU21623XXSP,2013-04-03 14:05:00,
2013-04-03 07:10:00,44.6,42.3,30.14,SE,135,0.0,0.7,92,0.00,,,0.00,WUHU21623XXSP,2013-04-03 14:10:00,
2013-04-03 07:15:00,45.7,42.8,30.14,SE,135,2.7,2.7,90,0.00,,,0.00,WUHU21623XXSP,2013-04-03 14:15:00,
2013-04-03 07:20:00,47.5,44.3,30.15,SE,135,0.0,2.7,89,0.00,,,0.00,WUHU21623XXSP,2013-04-03 14:20:00,
2013-04-03 07:25:00,48.9,44.8,30.15,SE,135,0.0,0.0,86,0.00,,,0.00,WUHU21623XXSP,2013-04-03 14:25:00,
2013-04-03 07:30:00,50.2,45.2,30.15,SE,135,0.0,0.0,83,0.00,,,0.00,WUHU21623XXSP,2013-04-03 14:30:00,
2013-04-03 07:35:00,50.9,45.9,30.15,SE,135,0.0,0.0,83,0.00,,,0.00,WUHU21623XXSP,2013-04-03 14:35:00,
2013-04-03 07:40:00,52.9,46.9,30.15,SE,135,0.0,0.0,80,0.00,,,0.00,WUHU21623XXSP,2013-04-03 14:40:00,
2013-04-03 07:45:00,50.9,43.9,30.15,SSE,157,6.0,6.0,77,0.00,,,0.00,WUHU21623XXSP,2013-04-03 14:45:00,
2013-04-03 07:50:00,49.8,43.5,30.15,SSE,157,6.0,6.0,79,0.00,,,0.00,WUHU21623XXSP,2013-04-03 14:50:00,
2013-04-03 07:55:00,50.9,44.9,30.15,SSE,157,0.0,6.0,80,0.00,,,0.00,WUHU21623XXSP,2013-04-03 14:55:00,
2013-04-03 08:01:00,53.2,46.8,30.15,SSE,157,0.0,6.0,79,0.00,,,0.00,WUHU21623XXSP,2013-04-03 15:01:00,
2013-04-03 08:05:00,56.7,49.2,30.15,SSE,157,0.0,0.0,76,0.00,,,0.00,WUHU21623XXSP,2013-04-03 15:05:00,
2013-04-03 08:10:00,58.8,48.7,30.15,SE,135,0.0,0.0,69,0.00,,,0.00,WUHU21623XXSP,2013-04-03 15:10:00,
2013-04-03 08:15:00,58.1,48.4,30.15,SE,135,0.0,0.0,70,0.00,,,0.00,WUHU21623XXSP,2013-04-03 15:15:00,
2013-04-03 08:20:00,57.4,47.7,30.15,SE,135,0.0,0.0,70,0.00,,,0.00,WUHU21623XXSP,2013-04-03 15:20:00,
2013-04-03 08:22:00,57.7,48.0,30.15,SE,135,0.0,0.0,70,0.00,,,0.00,WUHU21623XXSP,2013-04-03 15:22:00,
2013-04-03 08:26:00,58.5,48.4,30.15,SE,135,0.0,0.0,69,0.00,,,0.00,WUHU21623XXSP,2013-04-03 15:26:00,
2013-04-03 08:31:00,59.9,49.4,30.16,SE,135,0.0,0.0,68,0.00,,,0.00,WUHU21623XXSP,2013-04-03 15:31:00,
2013-04-03 08:36:00,60.4,49.5,30.16,SE,135,0.0,0.0,67,0.00,,,0.00,WUHU21623XXSP,2013-04-03 15:36:00,
2013-04-03 08:41:00,58.8,47.5,30.16,SSE,157,8.3,9.4,66,0.00,,,0.00,WUHU21623XXSP,2013-04-03 15:41:00,
2013-04-03 08:46:00,57.0,46.2,30.16,SSE,157,5.1,9.4,67,0.00,,,0.00,WUHU21623XXSP,2013-04-03 15:46:00,
2013-04-03 08:51:00,56.1,46.9,30.16,South,180,6.7,6.7,71,0.00,,,0.00,WUHU21623XXSP,2013-04-03 15:51:00,
2013-04-03 08:56:00,55.2,46.0,30.16,SE,135,6.9,6.9,71,0.00,,,0.00,WUHU21623XXSP,2013-04-03 15:56:00,
2013-04-03 09:01:00,52.9,44.9,30.16,SSE,157,6.9,6.9,74,0.00,,,0.00,WUHU21623XXSP,2013-04-03 16:01:00,
2013-04-03 09:06:00,53.2,45.8,30.16,South,180,2.7,6.9,76,0.00,,,0.00,WUHU21623XXSP,2013-04-03 16:06:00,
2013-04-03 09:12:00,55.8,46.9,30.16,SSE,157,0.0,2.7,72,0.00,,,0.00,WUHU21623XXSP,2013-04-03 16:12:00,
2013-04-03 09:17:00,55.2,46.0,30.16,South,180,5.1,7.6,71,0.00,,,0.00,WUHU21623XXSP,2013-04-03 16:17:00,
2013-04-03 09:22:00,54.3,45.5,30.16,South,180,8.3,8.3,72,0.00,,,0.00,WUHU21623XXSP,2013-04-03 16:22:00,
2013-04-03 09:27:00,56.5,47.6,30.17,South,180,8.3,11.2,72,0.00,,,0.00,WUHU21623XXSP,2013-04-03 16:27:00,
2013-04-03 09:32:00,57.7,48.0,30.17,South,180,11.2,11.2,70,0.00,,,0.00,WUHU21623XXSP,2013-04-03 16:32:00,
2013-04-03 09:37:00,56.8,46.4,30.17,SSW,202,9.8,11.2,68,0.00,,,0.00,WUHU21623XXSP,2013-04-03 16:37:00,
2013-04-03 09:42:00,57.6,46.4,30.17,South,180,1.3,9.8,66,0.00,,,0.00,WUHU21623XXSP,2013-04-03 16:42:00,
2013-04-03 09:47:00,57.7,46.9,30.17,SSW,202,10.7,11.0,67,0.00,,,0.00,WUHU21623XXSP,2013-04-03 16:47:00,
2013-04-03 09:52:00,59.9,47.8,30.17,SSE,157,19.0,19.0,64,0.00,,,0.00,WUHU21623XXSP,2013-04-03 16:52:00,
2013-04-03 09:57:00,59.2,47.9,30.17,SSW,202,11.9,19.0,66,0.00,,,0.00,WUHU21623XXSP,2013-04-03 16:57:00,
2013-04-03 10:02:00,60.4,48.6,30.17,SSW,202,14.3,14.3,65,0.00,,,0.00,WUHU21623XXSP,2013-04-03 17:02:00,
2013-04-03 10:07:00,59.2,47.1,30.17,South,180,3.4,16.1,64,0.00,,,0.00,WUHU21623XXSP,2013-04-03 17:07:00,
2013-04-03 10:12:00,59.4,46.9,30.17,South,180,12.8,16.1,63,0.00,,,0.00,WUHU21623XXSP,2013-04-03 17:12:00,
2013-04-03 10:17:00,58.8,46.3,30.17,SW,225,7.6,12.8,63,0.00,,,0.00,WUHU21623XXSP,2013-04-03 17:17:00,
2013-04-03 10:22:00,60.1,47.5,30.17,South,180,6.7,12.1,63,0.00,,,0.00,WUHU21623XXSP,2013-04-03 17:22:00,
2013-04-03 10:27:00,61.0,47.5,30.17,SW,225,12.8,12.8,61,0.00,,,0.00,WUHU21623XXSP,2013-04-03 17:27:00,
2013-04-03 10:32:00,61.9,48.4,30.16,SSW,202,7.2,12.8,61,0.00,,,0.00,WUHU21623XXSP,2013-04-03 17:32:00,
2013-04-03 10:37:00,61.5,47.1,30.17,SSW,202,15.4,15.4,59,0.00,,,0.00,WUHU21623XXSP,2013-04-03 17:37:00,
2013-04-03 10:42:00,61.5,47.5,30.17,SSW,202,15.4,15.4,60,0.00,,,0.00,WUHU21623XXSP,2013-04-03 17:42:00,
2013-04-03 10:47:00,62.8,47.4,30.16,South,180,2.5,15.4,57,0.00,,,0.00,WUHU21623XXSP,2013-04-03 17:47:00,
2013-04-03 10:53:00,62.2,47.7,30.16,WSW,247,6.9,10.1,59,0.00,,,0.00,WUHU21623XXSP,2013-04-03 17:53:00,
2013-04-03 10:58:00,62.4,47.5,30.16,SW,225,11.0,14.3,58,0.00,,,0.00,WUHU21623XXSP,2013-04-03 17:58:00,
2013-04-03 11:03:00,61.5,46.6,30.16,SW,225,11.9,14.3,58,0.00,,,0.00,WUHU21623XXSP,2013-04-03 18:03:00,
2013-04-03 11:08:00,61.7,47.3,30.16,WSW,247,3.1,11.9,59,0.00,,,0.00,WUHU21623XXSP,2013-04-03 18:08:00,
2013-04-03 11:13:00,61.5,46.6,30.16,South,180,10.1,10.1,58,0.00,,,0.00,WUHU21623XXSP,2013-04-03 18:13:00,
2013-04-03 11:18:00,60.6,45.8,30.15,South,180,9.2,10.1,58,0.00,,,0.00,WUHU21623XXSP,2013-04-03 18:18:00,
2013-04-03 11:23:00,60.4,46.0,30.16,SSW,202,5.4,10.1,59,0.00,,,0.00,WUHU21623XXSP,2013-04-03 18:23:00,
2013-04-03 11:28:00,61.5,46.6,30.15,South,180,8.7,10.5,58,0.00,,,0.00,WUHU21623XXSP,2013-04-03 18:28:00,
2013-04-03 11:33:00,61.2,46.3,30.15,SSW,202,8.3,10.5,58,0.00,,,0.00,WUHU21623XXSP,2013-04-03 18:33:00,
2013-04-03 11:38:00,61.9,46.5,30.15,South,180,8.3,11.2,57,0.00,,,0.00,WUHU21623XXSP,2013-04-03 18:38:00,
2013-04-03 11:43:00,62.4,47.0,30.15,SSW,202,3.6,11.2,57,0.00,,,0.00,WUHU21623XXSP,2013-04-03 18:43:00,
2013-04-03 11:48:00,62.4,46.5,30.15,SSW,202,3.6,8.3,56,0.00,,,0.00,WUHU21623XXSP,2013-04-03 18:48:00,
2013-04-03 11:53:00,61.3,46.0,30.15,South,180,13.2,13.2,57,0.00,,,0.00,WUHU21623XXSP,2013-04-03 18:53:00,
2013-04-03 11:58:00,59.5,45.6,30.14,South,180,10.7,13.2,60,0.00,,,0.00,WUHU21623XXSP,2013-04-03 18:58:00,
2013-04-03 12:03:00,60.1,45.8,30.14,South,180,0.7,11.6,59,0.00,,,0.00,WUHU21623XXSP,2013-04-03 19:03:00,
2013-04-03 12:09:00,60.1,46.2,30.14,WSW,247,9.4,11.6,60,0.00,,,0.00,WUHU21623XXSP,2013-04-03 19:09:00,
2013-04-03 12:14:00,58.8,45.0,30.14,SE,135,6.5,15.2,60,0.00,,,0.00,WUHU21623XXSP,2013-04-03 19:14:00,
2013-04-03 12:19:00,58.8,45.4,30.14,SSW,202,0.0,15.2,61,0.00,,,0.00,WUHU21623XXSP,2013-04-03 19:19:00,
2013-04-03 12:24:00,59.7,46.7,30.13,SSW,202,10.7,10.7,62,0.00,,,0.00,WUHU21623XXSP,2013-04-03 19:24:00,
2013-04-03 12:29:00,60.1,46.2,30.14,SW,225,0.0,12.1,60,0.00,,,0.00,WUHU21623XXSP,2013-04-03 19:29:00,
2013-04-03 12:34:00,60.1,46.7,30.14,SW,225,0.0,12.1,61,0.00,,,0.00,WUHU21623XXSP,2013-04-03 19:34:00,
2013-04-03 12:39:00,59.7,45.4,30.14,SSE,157,4.3,8.5,59,0.00,,,0.00,WUHU21623XXSP,2013-04-03 19:39:00,
2013-04-03 12:44:00,59.5,46.5,30.14,SSE,157,8.3,8.5,62,0.00,,,0.00,WUHU21623XXSP,2013-04-03 19:44:00,
2013-04-03 12:49:00,60.1,46.7,30.13,SSW,202,0.0,8.3,61,0.00,,,0.00,WUHU21623XXSP,2013-04-03 19:49:00,
2013-04-03 12:54:00,61.3,46.9,30.13,South,180,8.1,12.5,59,0.00,,,0.00,WUHU21623XXSP,2013-04-03 19:54:00,
2013-04-03 12:59:00,61.0,46.6,30.13,SSW,202,10.7,12.5,59,0.00,,,0.00,WUHU21623XXSP,2013-04-03 19:59:00,
2013-04-03 13:04:00,61.0,46.6,30.13,SSW,202,0.0,10.7,59,0.00,,,0.00,WUHU21623XXSP,2013-04-03 20:04:00,
2013-04-03 13:09:00,60.6,46.2,30.13,SSE,157,10.1,14.1,59,0.00,,,0.00,WUHU21623XXSP,2013-04-03 20:09:00,
2013-04-03 13:14:00,61.0,46.6,30.13,SSE,157,3.4,10.1,59,0.00,,,0.00,WUHU21623XXSP,2013-04-03 20:14:00,
2013-04-03 13:19:00,61.3,46.9,30.12,WSW,247,8.9,8.9,59,0.00,,,0.00,WUHU21623XXSP,2013-04-03 20:19:00,
2013-04-03 13:24:00,61.9,46.5,30.12,South,180,5.1,8.9,57,0.00,,,0.00,WUHU21623XXSP,2013-04-03 20:24:00,
2013-04-03 13:29:00,61.3,46.0,30.12,WSW,247,11.0,11.0,57,0.00,,,0.00,WUHU21623XXSP,2013-04-03 20:29:00,
2013-04-03 13:34:00,62.1,47.6,30.12,WSW,247,19.2,19.2,59,0.00,,,0.00,WUHU21623XXSP,2013-04-03 20:34:00,
2013-04-03 13:40:00,62.8,47.4,30.12,South,180,10.5,19.2,57,0.00,,,0.00,WUHU21623XXSP,2013-04-03 20:40:00,
2013-04-03 13:45:00,63.0,48.0,30.12,South,180,6.3,10.5,58,0.00,,,0.00,WUHU21623XXSP,2013-04-03 20:45:00,
2013-04-03 13:50:00,61.0,45.7,30.12,SE,135,0.0,13.2,57,0.00,,,0.00,WUHU21623XXSP,2013-04-03 20:50:00,
2013-04-03 13:55:00,61.0,46.1,30.12,WSW,247,0.0,13.2,58,0.00,,,0.00,WUHU21623XXSP,2013-04-03 20:55:00,
2013-04-03 14:00:00,61.9,47.0,30.12,WSW,247,3.4,3.4,58,0.00,,,0.00,WUHU21623XXSP,2013-04-03 21:00:00,
2013-04-03 14:05:00,63.3,47.3,30.12,WSW,247,6.9,8.3,56,0.00,,,0.00,WUHU21623XXSP,2013-04-03 21:05:00,
2013-04-03 14:10:00,64.2,48.7,30.12,WSW,247,13.0,13.0,57,0.00,,,0.00,WUHU21623XXSP,2013-04-03 21:10:00,
2013-04-03 14:15:00,65.1,48.5,30.12,West,270,0.0,13.0,55,0.00,,,0.00,WUHU21623XXSP,2013-04-03 21:15:00,
2013-04-03 14:20:00,64.6,47.1,30.12,WSW,247,4.3,9.8,53,0.00,,,0.00,WUHU21623XXSP,2013-04-03 21:20:00,
2013-04-03 14:25:00,64.9,47.3,30.12,WSW,247,8.3,10.5,53,0.00,,,0.00,WUHU21623XXSP,2013-04-03 21:25:00,
2013-04-03 14:30:00,65.5,48.4,30.12,WSW,247,7.4,10.5,54,0.00,,,0.00,WUHU21623XXSP,2013-04-03 21:30:00,
2013-04-03 14:35:00,66.0,47.8,30.12,WSW,247,6.0,8.5,52,0.00,,,0.00,WUHU21623XXSP,2013-04-03 21:35:00,
2013-04-03 14:40:00,66.2,48.0,30.12,South,180,6.7,8.5,52,0.00,,,0.00,WUHU21623XXSP,2013-04-03 21:40:00,
2013-04-03 14:45:00,65.1,46.5,30.12,SW,225,4.3,11.0,51,0.00,,,0.00,WUHU21623XXSP,2013-04-03 21:45:00,
2013-04-03 14:50:00,64.2,46.2,30.12,WSW,247,7.6,11.0,52,0.00,,,0.00,WUHU21623XXSP,2013-04-03 21:50:00,
2013-04-03 14:55:00,64.0,46.0,30.12,SW,225,12.5,12.5,52,0.00,,,0.00,WUHU21623XXSP,2013-04-03 21:55:00,
2013-04-03 15:00:00,63.7,45.2,30.12,SW,225,14.8,14.8,51,0.00,,,0.00,WUHU21623XXSP,2013-04-03 22:00:00,
2013-04-03 15:05:00,63.1,45.1,30.12,SW,225,8.5,14.8,52,0.00,,,0.00,WUHU21623XXSP,2013-04-03 22:05:00,
2013-04-03 15:10:00,63.0,45.6,30.12,SSW,202,0.0,8.5,53,0.00,,,0.00,WUHU21623XXSP,2013-04-03 22:10:00,
2013-04-03 15:15:00,64.0,46.0,30.12,WSW,247,15.7,17.7,52,0.00,,,0.00,WUHU21623XXSP,2013-04-03 22:15:00,
2013-04-03 15:20:00,63.5,45.0,30.12,WSW,247,9.8,17.7,51,0.00,,,0.00,WUHU21623XXSP,2013-04-03 22:20:00,
2013-04-03 15:25:00,63.1,44.6,30.12,SW,225,5.6,11.6,51,0.00,,,0.00,WUHU21623XXSP,2013-04-03 22:25:00,
2013-04-03 15:30:00,63.7,45.2,30.12,West,270,10.1,10.5,51,0.00,,,0.00,WUHU21623XXSP,2013-04-03 22:30:00,
2013-04-03 15:35:00,63.7,45.2,30.12,SW,225,12.1,14.8,51,0.00,,,0.00,WUHU21623XXSP,2013-04-03 22:35:00,
2013-04-03 15:40:00,64.0,45.4,30.11,SW,225,11.4,14.8,51,0.00,,,0.00,WUHU21623XXSP,2013-04-03 22:40:00,
2013-04-03 15:45:00,63.7,44.6,30.11,WSW,247,4.7,11.6,50,0.00,,,0.00,WUHU21623XXSP,2013-04-03 22:45:00,
2013-04-03 15:50:00,63.5,45.0,30.11,WSW,247,4.3,11.6,51,0.00,,,0.00,WUHU21623XXSP,2013-04-03 22:50:00,
2013-04-03 15:55:00,63.5,45.0,30.11,WSW,247,7.8,7.8,51,0.00,,,0.00,WUHU21623XXSP,2013-04-03 22:55:00,
2013-04-03 16:00:00,64.2,45.6,30.11,WSW,247,7.8,8.1,51,0.00,,,0.00,WUHU21623XXSP,2013-04-03 23:00:00,
2013-04-03 16:05:00,64.6,45.5,30.10,WSW,247,10.5,10.5,50,0.00,,,0.00,WUHU21623XXSP,2013-04-03 23:05:00,
2013-04-03 16:10:00,64.9,45.2,30.10,WSW,247,12.1,12.1,49,0.00,,,0.00,WUHU21623XXSP,2013-04-03 23:10:00,
2013-04-03 16:15:00,64.2,44.5,30.10,WSW,247,15.7,15.7,49,0.00,,,0.00,WUHU21623XXSP,2013-04-03 23:15:00,
2013-04-03 16:20:00,64.2,45.1,30.10,WSW,247,10.5,15.7,50,0.00,,,0.00,WUHU21623XXSP,2013-04-03 23:20:00,
2013-04-03 16:25:00,64.2,45.1,30.10,WSW,247,8.3,10.5,50,0.00,,,0.00,WUHU21623XXSP,2013-04-03 23:25:00,
2013-04-03 16:30:00,64.0,44.4,30.10,WSW,247,8.5,10.1,49,0.00,,,0.00,WUHU21623XXSP,2013-04-03 23:30:00,
2013-04-03 16:35:00,63.7,43.5,30.10,WSW,247,6.7,9.6,48,0.00,,,0.00,WUHU21623XXSP,2013-04-03 23:35:00,
2013-04-03 16:40:00,63.5,43.3,30.09,WSW,247,0.4,11.4,48,0.00,,,0.00,WUHU21623XXSP,2013-04-03 23:40:00,
2013-04-03 16:45:00,63.3,43.7,30.09,WSW,247,8.3,11.4,49,0.00,,,0.00,WUHU21623XXSP,2013-04-03 23:45:00,
2013-04-03 16:50:00,63.3,44.3,30.10,SW,225,0.0,8.3,50,0.00,,,0.00,WUHU21623XXSP,2013-04-03 23:50:00,
2013-04-03 16:55:00,63.1,44.1,30.09,WSW,247,9.2,9.2,50,0.00,,,0.00,WUHU21623XXSP,2013-04-03 23:55:00,
2013-04-03 17:00:00,63.1,44.1,30.09,WSW,247,1.6,9.2,50,0.00,,,0.00,WUHU21623XXSP,2013-04-04 00:00:00,
2013-04-03 17:05:00,63.1,44.1,30.09,WSW,247,1.1,1.6,50,0.00,,,0.00,WUHU21623XXSP,2013-04-04 00:05:00,
2013-04-03 17:10:00,63.5,44.4,30.09,WSW,247,5.1,14.1,50,0.00,,,0.00,WUHU21623XXSP,2013-04-04 00:10:00,
2013-04-03 17:15:00,63.7,44.6,30.09,WSW,247,11.4,14.1,50,0.00,,,0.00,WUHU21623XXSP,2013-04-04 00:15:00,
2013-04-03 17:20:00,63.9,44.8,30.09,WSW,247,11.4,11.4,50,0.00,,,0.00,WUHU21623XXSP,2013-04-04 00:20:00,
2013-04-03 17:25:00,63.7,44.6,30.09,WSW,247,6.5,11.4,50,0.00,,,0.00,WUHU21623XXSP,2013-04-04 00:25:00,
2013-04-03 17:30:00,63.3,43.7,30.09,WSW,247,12.5,12.5,49,0.00,,,0.00,WUHU21623XXSP,2013-04-04 00:30:00,
2013-04-03 17:35:00,63.1,44.1,30.09,SSW,202,3.8,12.5,50,0.00,,,0.00,WUHU21623XXSP,2013-04-04 00:35:00,
2013-04-03 17:40:00,63.0,44.0,30.09,SW,225,5.1,6.0,50,0.00,,,0.00,WUHU21623XXSP,2013-04-04 00:40:00,
2013-04-03 17:45:00,62.4,44.0,30.09,SW,225,6.0,6.0,51,0.00,,,0.00,WUHU21623XXSP,2013-04-04 00:45:00,
2013-04-03 17:50:00,62.2,43.2,30.09,SW,225,0.0,7.4,50,0.00,,,0.00,WUHU21623XXSP,2013-04-04 00:50:00,
2013-04-03 17:55:00,61.7,43.3,30.09,SSW,202,1.8,8.3,51,0.00,,,0.00,WUHU21623XXSP,2013-04-04 00:55:00,
2013-04-03 18:00:00,61.0,42.7,30.09,SW,225,0.0,8.3,51,0.00,,,0.00,WUHU21623XXSP,2013-04-04 01:00:00,
2013-04-03 18:05:00,60.6,42.8,30.09,SW,225,0.0,6.0,52,0.00,,,0.00,WUHU21623XXSP,2013-04-04 01:05:00,
2013-04-03 18:10:00,60.4,42.6,30.09,SW,225,0.0,0.0,52,0.00,,,0.00,WUHU21623XXSP,2013-04-04 01:10:00,
2013-04-03 18:15:00,60.1,42.9,30.09,SW,225,0.0,0.0,53,0.00,,,0.00,WUHU21623XXSP,2013-04-04 01:15:00,
2013-04-03 18:20:00,59.9,42.7,30.09,SW,225,0.0,0.0,53,0.00,,,0.00,WUHU21623XXSP,2013-04-04 01:20:00,
2013-04-03 18:25:00,59.5,42.3,30.09,SW,225,0.0,0.0,53,0.00,,,0.00,WUHU21623XXSP,2013-04-04 01:25:00,
2013-04-03 18:30:00,58.8,42.2,30.10,SW,225,0.0,0.0,54,0.00,,,0.00,WUHU21623XXSP,2013-04-04 01:30:00,
2013-04-03 18:35:00,58.8,42.2,30.09,SW,225,0.0,0.0,54,0.00,,,0.00,WUHU21623XXSP,2013-04-04 01:35:00,
2013-04-03 18:40:00,58.5,42.4,30.09,SW,225,0.0,0.0,55,0.00,,,0.00,WUHU21623XXSP,2013-04-04 01:40:00,
2013-04-03 18:45:00,57.9,41.8,30.09,SW,225,0.0,0.9,55,0.00,,,0.00,WUHU21623XXSP,2013-04-04 01:45:00,
2013-04-03 18:50:00,57.6,41.5,30.09,SW,225,0.0,0.9,55,0.00,,,0.00,WUHU21623XXSP,2013-04-04 01:50:00,
2013-04-03 18:51:00,57.4,41.8,30.09,SW,225,0.0,0.0,56,0.00,,,0.00,WUHU21623XXSP,2013-04-04 01:51:00,
2013-04-03 18:55:00,57.0,41.4,30.09,SW,225,0.0,0.0,56,0.00,,,0.00,WUHU21623XXSP,2013-04-04 01:55:00,
2013-04-03 19:00:00,56.5,41.0,30.09,SW,225,0.0,0.0,56,0.00,,,0.00,WUHU21623XXSP,2013-04-04 02:00:00,
2013-04-03 19:05:00,56.1,40.6,30.09,SW,225,0.0,0.0,56,0.00,,,0.00,WUHU21623XXSP,2013-04-04 02:05:00,
2013-04-03 19:10:00,55.6,40.1,30.09,SW,225,0.0,0.0,56,0.00,,,0.00,WUHU21623XXSP,2013-04-04 02:10:00,
2013-04-03 19:15:00,55.2,40.2,30.09,SW,225,0.0,0.0,57,0.00,,,0.00,WUHU21623XXSP,2013-04-04 02:15:00,
2013-04-03 19:20:00,54.7,40.2,30.08,SW,225,0.0,0.0,58,0.00,,,0.00,WUHU21623XXSP,2013-04-04 02:20:00,
2013-04-03 19:25:00,54.3,40.3,30.08,SSW,202,2.9,2.9,59,0.00,,,0.00,WUHU21623XXSP,2013-04-04 02:25:00,
2013-04-03 19:30:00,53.8,39.8,30.08,SSW,202,0.0,5.8,59,0.00,,,0.00,WUHU21623XXSP,2013-04-04 02:30:00,
2013-04-03 19:35:00,53.6,40.1,30.08,SSW,202,0.0,5.8,60,0.00,,,0.00,WUHU21623XXSP,2013-04-04 02:35:00,
2013-04-03 19:40:00,53.4,39.9,30.08,SSW,202,0.0,1.6,60,0.00,,,0.00,WUHU21623XXSP,2013-04-04 02:40:00,
2013-04-03 19:45:00,53.2,39.7,30.08,SSW,202,0.0,0.0,60,0.00,,,0.00,WUHU21623XXSP,2013-04-04 02:45:00,
2013-04-03 19:50:00,52.9,39.8,30.08,SSW,202,0.0,0.0,61,0.00,,,0.00,WUHU21623XXSP,2013-04-04 02:50:00,
2013-04-03 19:55:00,52.7,39.6,30.08,SSW,202,1.8,1.8,61,0.00,,,0.00,WUHU21623XXSP,2013-04-04 02:55:00,
2013-04-03 20:00:00,52.3,39.3,30.08,SSW,202,0.0,1.8,61,0.00,,,0.00,WUHU21623XXSP,2013-04-04 03:00:00,
2013-04-03 20:05:00,52.2,39.6,30.08,SSW,202,0.0,1.8,62,0.00,,,0.00,WUHU21623XXSP,2013-04-04 03:05:00,
2013-04-03 20:10:00,52.0,39.4,30.08,SSW,202,1.6,1.6,62,0.00,,,0.00,WUHU21623XXSP,2013-04-04 03:10:00,
2013-04-03 20:15:00,51.6,39.4,30.08,SSW,202,0.9,1.6,63,0.00,,,0.00,WUHU21623XXSP,2013-04-04 03:15:00,
2013-04-03 20:20:00,51.6,39.4,30.08,SSW,202,0.0,0.9,63,0.00,,,0.00,WUHU21623XXSP,2013-04-04 03:20:00,
2013-04-03 20:25:00,51.4,39.7,30.08,SSW,202,0.0,0.0,64,0.00,,,0.00,WUHU21623XXSP,2013-04-04 03:25:00,
2013-04-03 20:30:00,51.1,39.4,30.08,SSW,202,0.0,0.0,64,0.00,,,0.00,WUHU21623XXSP,2013-04-04 03:30:00,
2013-04-03 20:35:00,50.9,39.2,30.08,SSW,202,2.0,2.0,64,0.00,,,0.00,WUHU21623XXSP,2013-04-04 03:35:00,
2013-04-03 20:40:00,50.7,39.0,30.08,SSW,202,0.0,2.5,64,0.00,,,0.00,WUHU21623XXSP,2013-04-04 03:40:00,
2013-04-03 20:46:00,50.5,39.2,30.08,SSW,202,2.5,2.7,65,0.00,,,0.00,WUHU21623XXSP,2013-04-04 03:46:00,
2013-04-03 20:51:00,50.2,38.5,30.08,SSW,202,0.0,2.5,64,0.00,,,0.00,WUHU21623XXSP,2013-04-04 03:51:00,
2013-04-03 20:56:00,49.8,38.5,30.07,SSW,202,3.1,3.1,65,0.00,,,0.00,WUHU21623XXSP,2013-04-04 03:56:00,
2013-04-03 21:00:00,49.6,38.3,30.07,SSW,202,0.4,3.1,65,0.00,,,0.00,WUHU21623XXSP,2013-04-04 04:00:00,
2013-04-03 21:05:00,49.1,37.9,30.08,SSW,202,1.1,3.6,65,0.00,,,0.00,WUHU21623XXSP,2013-04-04 04:05:00,
2013-04-03 21:10:00,48.6,37.8,30.08,SSW,202,0.0,3.1,66,0.00,,,0.00,WUHU21623XXSP,2013-04-04 04:10:00,
2013-04-03 21:15:00,47.8,37.8,30.08,SSW,202,0.0,3.4,68,0.00,,,0.00,WUHU21623XXSP,2013-04-04 04:15:00,
2013-04-03 21:20:00,47.3,37.3,30.07,SSW,202,0.0,3.4,68,0.00,,,0.00,WUHU21623XXSP,2013-04-04 04:20:00,
2013-04-03 21:25:00,47.1,37.1,30.08,SSW,202,0.0,0.9,68,0.00,,,0.00,WUHU21623XXSP,2013-04-04 04:25:00,
2013-04-03 21:30:00,46.6,36.6,30.07,SSW,202,0.0,0.9,68,0.00,,,0.00,WUHU21623XXSP,2013-04-04 04:30:00,
2013-04-03 21:35:00,46.2,37.0,30.08,West,270,0.0,0.0,70,0.00,,,0.00,WUHU21623XXSP,2013-04-04 04:35:00,
2013-04-03 21:40:00,45.7,36.9,30.08,West,270,0.0,0.0,71,0.00,,,0.00,WUHU21623XXSP,2013-04-04 04:40:00,
2013-04-03 21:45:00,45.1,36.6,30.08,West,270,0.0,0.0,72,0.00,,,0.00,WUHU21623XXSP,2013-04-04 04:45:00,
2013-04-03 21:50:00,45.1,36.6,30.08,West,270,0.0,0.0,72,0.00,,,0.00,WUHU21623XXSP,2013-04-04 04:50:00,
2013-04-03 21:55:00,45.3,36.8,30.08,West,270,0.0,0.0,72,0.00,,,0.00,WUHU21623XXSP,2013-04-04 04:55:00,
2013-04-03 22:00:00,45.1,36.6,30.08,West,270,0.0,0.0,72,0.00,,,0.00,WUHU21623XXSP,2013-04-04 05:00:00,
2013-04-03 22:05:00,45.1,36.3,30.08,West,270,0.0,0.0,71,0.00,,,0.00,WUHU21623XXSP,2013-04-04 05:05:00,
2013-04-03 22:10:00,45.0,36.5,30.07,West,270,0.0,0.0,72,0.00,,,0.00,WUHU21623XXSP,2013-04-04 05:10:00,
2013-04-03 22:15:00,45.0,37.5,30.07,West,270,0.0,0.0,75,0.00,,,0.00,WUHU21623XXSP,2013-04-04 05:15:00,
2013-04-03 22:20:00,44.6,37.5,30.07,West,270,0.0,0.0,76,0.00,,,0.00,WUHU21623XXSP,2013-04-04 05:20:00,
2013-04-03 22:25:00,44.2,36.8,30.07,West,270,0.0,0.0,75,0.00,,,0.00,WUHU21623XXSP,2013-04-04 05:25:00,
2013-04-03 22:30:00,43.9,36.5,30.07,West,270,0.0,0.0,75,0.00,,,0.00,WUHU21623XXSP,2013-04-04 05:30:00,
2013-04-03 22:35:00,43.9,36.8,30.07,West,270,0.0,0.0,76,0.00,,,0.00,WUHU21623XXSP,2013-04-04 05:35:00,
2013-04-03 22:40:00,43.7,36.6,30.07,West,270,0.0,0.0,76,0.00,,,0.00,WUHU21623XXSP,2013-04-04 05:40:00,
2013-04-03 22:45:00,43.5,36.7,30.07,West,270,0.0,0.0,77,0.00,,,0.00,WUHU21623XXSP,2013-04-04 05:45:00,
2013-04-03 22:50:00,43.5,37.1,30.07,West,270,0.0,0.0,78,0.00,,,0.00,WUHU21623XXSP,2013-04-04 05:50:00,
2013-04-03 22:55:00,43.5,37.4,30.07,West,270,0.0,0.0,79,0.00,,,0.00,WUHU21623XXSP,2013-04-04 05:55:00,
2013-04-03 23:00:00,43.5,37.7,30.07,West,270,0.0,0.0,80,0.00,,,0.00,WUHU21623XXSP,2013-04-04 06:00:00,
2013-04-03 23:05:00,43.3,37.2,30.07,West,270,0.0,0.0,79,0.00,,,0.00,WUHU21623XXSP,2013-04-04 06:05:00,
2013-04-03 23:10:00,43.3,36.9,30.07,West,270,0.0,0.0,78,0.00,,,0.00,WUHU21623XXSP,2013-04-04 06:10:00,
2013-04-03 23:15:00,43.0,36.6,30.07,West,270,0.0,0.0,78,0.00,,,0.00,WUHU21623XXSP,2013-04-04 06:15:00,
2013-04-03 23:20:00,43.0,36.6,30.07,West,270,0.0,0.0,78,0.00,,,0.00,WUHU21623XXSP,2013-04-04 06:20:00,
2013-04-03 23:25:00,42.6,35.9,30.07,West,270,0.0,0.0,77,0.00,,,0.00,WUHU21623XXSP,2013-04-04 06:25:00,
2013-04-03 23:30:00,42.6,36.2,30.07,West,270,0.0,0.0,78,0.00,,,0.00,WUHU21623XXSP,2013-04-04 06:30:00,
2013-04-03 23:35:00,42.4,36.0,30.07,West,270,0.0,0.0,78,0.00,,,0.00,WUHU21623XXSP,2013-04-04 06:35:00,
2013-04-03 23:40:00,42.4,36.0,30.07,West,270,0.0,0.0,78,0.00,,,0.00,WUHU21623XXSP,2013-04-04 06:40:00,
2013-04-03 23:45:00,42.1,36.9,30.07,West,270,0.0,0.0,82,0.00,,,0.00,WUHU21623XXSP,2013-04-04 06:45:00,
2013-04-03 23:50:00,41.9,36.4,30.07,WSW,247,0.0,0.0,81,0.00,,,0.00,WUHU21623XXSP,2013-04-04 06:50:00,
2013-04-03 23:55:00,41.5,36.4,30.07,SSW,202,1.1,1.1,82,0.00,,,0.00,WUHU21623XXSP,2013-04-04 06:55:00,